sensor_id;sensor_type;location;lat;lon;timestamp;temperature;humidity
3380;DHT22;1703;51.964;7.642;2023-04-08T00:00:27;7.50;99.90
3380;DHT22;1703;51.964;7.642;2023-04-08T00:02:54;7.50;99.90
3380;DHT22;1703;51.964;7.642;2023-04-08T00:05:20;7.50;99.90
3380;DHT22;1703;51.964;7.642;2023-04-08T00:07:47;7.50;99.90
3380;DHT22;1703;51.964;7.642;2023-04-08T00:10:14;7.40;99.90
3380;DHT22;1703;51.964;7.642;2023-04-08T00:12:41;7.50;99.90
3380;DHT22;1703;51.964;7.642;2023-04-08T00:15:08;7.40;99.90
3380;DHT22;1703;51.964;7.642;2023-04-08T00:17:36;7.40;99.90
3380;DHT22;1703;51.964;7.642;2023-04-08T00:20:04;7.40;99.90
3380;DHT22;1703;51.964;7.642;2023-04-08T00:22:31;7.40;99.90
3380;DHT22;1703;51.964;7.642;2023-04-08T00:24:58;7.40;99.90
3380;DHT22;1703;51.964;7.642;2023-04-08T00:27:25;7.30;99.90
3380;DHT22;1703;51.964;7.642;2023-04-08T00:29:52;7.30;99.90
3380;DHT22;1703;51.964;7.642;2023-04-08T00:32:19;7.30;99.90
3380;DHT22;1703;51.964;7.642;2023-04-08T00:34:47;7.20;99.90
3380;DHT22;1703;51.964;7.642;2023-04-08T00:37:15;7.20;99.90
3380;DHT22;1703;51.964;7.642;2023-04-08T00:39:42;7.10;99.90
3380;DHT22;1703;51.964;7.642;2023-04-08T00:42:09;7.20;99.90
3380;DHT22;1703;51.964;7.642;2023-04-08T00:44:36;7.10;99.90
3380;DHT22;1703;51.964;7.642;2023-04-08T00:47:03;7.10;99.90
3380;DHT22;1703;51.964;7.642;2023-04-08T00:49:30;7.00;99.90
3380;DHT22;1703;51.964;7.642;2023-04-08T00:51:59;7.00;99.90
3380;DHT22;1703;51.964;7.642;2023-04-08T00:54:26;7.00;99.90
3380;DHT22;1703;51.964;7.642;2023-04-08T00:56:53;6.90;99.90
3380;DHT22;1703;51.964;7.642;2023-04-08T00:59:20;6.90;99.90
3380;DHT22;1703;51.964;7.642;2023-04-08T01:02:01;6.90;99.90
3380;DHT22;1703;51.964;7.642;2023-04-08T01:04:38;6.90;99.90
3380;DHT22;1703;51.964;7.642;2023-04-08T01:07:14;6.90;99.90
3380;DHT22;1703;51.964;7.642;2023-04-08T01:09:45;6.80;99.90
3380;DHT22;1703;51.964;7.642;2023-04-08T01:12:17;6.80;99.90
3380;DHT22;1703;51.964;7.642;2023-04-08T01:14:46;6.70;99.90
3380;DHT22;1703;51.964;7.642;2023-04-08T01:17:16;6.70;99.90
3380;DHT22;1703;51.964;7.642;2023-04-08T01:19:45;6.70;99.90
3380;DHT22;1703;51.964;7.642;2023-04-08T01:22:22;6.60;99.90
3380;DHT22;1703;51.964;7.642;2023-04-08T01:24:58;6.60;99.90
3380;DHT22;1703;51.964;7.642;2023-04-08T01:27:27;6.60;99.90
3380;DHT22;1703;51.964;7.642;2023-04-08T01:29:57;6.60;99.90
3380;DHT22;1703;51.964;7.642;2023-04-08T01:32:26;6.60;99.90
3380;DHT22;1703;51.964;7.642;2023-04-08T01:34:53;6.50;99.90
3380;DHT22;1703;51.964;7.642;2023-04-08T01:37:20;6.50;99.90
3380;DHT22;1703;51.964;7.642;2023-04-08T01:39:48;6.50;99.90
3380;DHT22;1703;51.964;7.642;2023-04-08T01:42:15;6.50;99.90
3380;DHT22;1703;51.964;7.642;2023-04-08T01:44:44;6.40;99.90
3380;DHT22;1703;51.964;7.642;2023-04-08T01:47:12;6.40;99.90
3380;DHT22;1703;51.964;7.642;2023-04-08T01:49:40;6.40;99.90
3380;DHT22;1703;51.964;7.642;2023-04-08T01:52:08;6.30;99.90
3380;DHT22;1703;51.964;7.642;2023-04-08T01:54:36;6.30;99.90
3380;DHT22;1703;51.964;7.642;2023-04-08T01:57:04;6.30;99.90
3380;DHT22;1703;51.964;7.642;2023-04-08T01:59:35;6.30;99.90
3380;DHT22;1703;51.964;7.642;2023-04-08T02:02:08;6.30;99.90
3380;DHT22;1703;51.964;7.642;2023-04-08T02:04:35;6.40;99.90
3380;DHT22;1703;51.964;7.642;2023-04-08T02:07:03;6.30;99.90
3380;DHT22;1703;51.964;7.642;2023-04-08T02:09:30;6.30;99.90
3380;DHT22;1703;51.964;7.642;2023-04-08T02:11:57;6.20;99.90
3380;DHT22;1703;51.964;7.642;2023-04-08T02:14:24;6.20;99.90
3380;DHT22;1703;51.964;7.642;2023-04-08T02:16:55;6.10;99.90
3380;DHT22;1703;51.964;7.642;2023-04-08T02:19:29;6.10;99.90
3380;DHT22;1703;51.964;7.642;2023-04-08T02:21:58;6.10;99.90
3380;DHT22;1703;51.964;7.642;2023-04-08T02:24:28;6.20;99.90
3380;DHT22;1703;51.964;7.642;2023-04-08T02:26:57;6.20;99.90
3380;DHT22;1703;51.964;7.642;2023-04-08T02:29:25;6.10;99.90
3380;DHT22;1703;51.964;7.642;2023-04-08T02:31:55;6.20;99.90
3380;DHT22;1703;51.964;7.642;2023-04-08T02:34:24;6.10;99.90
3380;DHT22;1703;51.964;7.642;2023-04-08T02:36:51;6.10;99.90
3380;DHT22;1703;51.964;7.642;2023-04-08T02:39:18;6.00;99.90
3380;DHT22;1703;51.964;7.642;2023-04-08T02:41:48;6.00;99.90
3380;DHT22;1703;51.964;7.642;2023-04-08T02:44:15;5.90;99.90
3380;DHT22;1703;51.964;7.642;2023-04-08T02:46:42;5.90;99.90
3380;DHT22;1703;51.964;7.642;2023-04-08T02:49:08;5.90;99.90
3380;DHT22;1703;51.964;7.642;2023-04-08T02:51:37;5.90;99.90
3380;DHT22;1703;51.964;7.642;2023-04-08T02:54:03;5.90;99.90
3380;DHT22;1703;51.964;7.642;2023-04-08T02:56:30;5.90;99.90
3380;DHT22;1703;51.964;7.642;2023-04-08T02:58:57;5.90;99.90
3380;DHT22;1703;51.964;7.642;2023-04-08T03:01:24;5.90;99.90
3380;DHT22;1703;51.964;7.642;2023-04-08T03:03:50;5.80;99.90
3380;DHT22;1703;51.964;7.642;2023-04-08T03:06:17;5.80;99.90
3380;DHT22;1703;51.964;7.642;2023-04-08T03:08:45;5.80;99.90
3380;DHT22;1703;51.964;7.642;2023-04-08T03:11:12;5.90;99.90
3380;DHT22;1703;51.964;7.642;2023-04-08T03:13:39;5.90;99.90
3380;DHT22;1703;51.964;7.642;2023-04-08T03:16:06;5.90;99.90
3380;DHT22;1703;51.964;7.642;2023-04-08T03:18:33;5.90;99.90
3380;DHT22;1703;51.964;7.642;2023-04-08T03:21:00;6.00;99.90
3380;DHT22;1703;51.964;7.642;2023-04-08T03:23:27;6.00;99.90
3380;DHT22;1703;51.964;7.642;2023-04-08T03:26:02;6.00;99.90
3380;DHT22;1703;51.964;7.642;2023-04-08T03:28:29;6.10;99.90
3380;DHT22;1703;51.964;7.642;2023-04-08T03:30:55;6.20;99.90
3380;DHT22;1703;51.964;7.642;2023-04-08T03:33:22;6.10;99.90
3380;DHT22;1703;51.964;7.642;2023-04-08T03:35:49;6.10;99.90
3380;DHT22;1703;51.964;7.642;2023-04-08T03:38:16;6.20;99.90
3380;DHT22;1703;51.964;7.642;2023-04-08T03:40:43;6.20;99.90
3380;DHT22;1703;51.964;7.642;2023-04-08T03:43:14;6.20;99.90
3380;DHT22;1703;51.964;7.642;2023-04-08T03:45:41;6.30;99.90
3380;DHT22;1703;51.964;7.642;2023-04-08T03:48:07;6.30;99.90
3380;DHT22;1703;51.964;7.642;2023-04-08T03:50:34;6.20;99.90
3380;DHT22;1703;51.964;7.642;2023-04-08T03:53:01;6.30;99.90
3380;DHT22;1703;51.964;7.642;2023-04-08T03:55:28;6.20;99.90
3380;DHT22;1703;51.964;7.642;2023-04-08T03:57:54;6.20;99.90
3380;DHT22;1703;51.964;7.642;2023-04-08T04:00:23;6.30;99.90
3380;DHT22;1703;51.964;7.642;2023-04-08T04:02:49;6.30;99.90
3380;DHT22;1703;51.964;7.642;2023-04-08T04:05:16;6.30;99.90
3380;DHT22;1703;51.964;7.642;2023-04-08T04:07:43;6.40;99.90
3380;DHT22;1703;51.964;7.642;2023-04-08T04:10:10;6.40;99.90
3380;DHT22;1703;51.964;7.642;2023-04-08T04:12:37;6.40;99.90
3380;DHT22;1703;51.964;7.642;2023-04-08T04:15:05;6.50;99.90
3380;DHT22;1703;51.964;7.642;2023-04-08T04:17:33;6.50;99.90
3380;DHT22;1703;51.964;7.642;2023-04-08T04:20:03;6.50;99.90
3380;DHT22;1703;51.964;7.642;2023-04-08T04:22:29;6.50;99.90
3380;DHT22;1703;51.964;7.642;2023-04-08T04:24:56;6.60;99.90
3380;DHT22;1703;51.964;7.642;2023-04-08T04:27:23;6.60;99.90
3380;DHT22;1703;51.964;7.642;2023-04-08T04:29:50;6.60;99.90
3380;DHT22;1703;51.964;7.642;2023-04-08T04:32:16;6.60;99.90
3380;DHT22;1703;51.964;7.642;2023-04-08T04:34:45;6.60;99.90
3380;DHT22;1703;51.964;7.642;2023-04-08T04:37:12;6.50;99.90
3380;DHT22;1703;51.964;7.642;2023-04-08T04:39:39;6.50;99.90
3380;DHT22;1703;51.964;7.642;2023-04-08T04:42:05;6.50;99.90
3380;DHT22;1703;51.964;7.642;2023-04-08T04:44:32;6.50;99.90
3380;DHT22;1703;51.964;7.642;2023-04-08T04:46:59;6.60;99.90
3380;DHT22;1703;51.964;7.642;2023-04-08T04:49:26;6.70;99.90
3380;DHT22;1703;51.964;7.642;2023-04-08T04:51:54;6.70;99.90
3380;DHT22;1703;51.964;7.642;2023-04-08T04:54:21;6.80;99.90
3380;DHT22;1703;51.964;7.642;2023-04-08T04:56:48;6.70;99.90
3380;DHT22;1703;51.964;7.642;2023-04-08T04:59:15;6.70;99.90
3380;DHT22;1703;51.964;7.642;2023-04-08T05:01:41;6.80;99.90
3380;DHT22;1703;51.964;7.642;2023-04-08T05:04:08;6.70;99.90
3380;DHT22;1703;51.964;7.642;2023-04-08T05:06:35;6.80;99.90
3380;DHT22;1703;51.964;7.642;2023-04-08T05:09:03;6.90;99.90
3380;DHT22;1703;51.964;7.642;2023-04-08T05:11:30;6.90;99.90
3380;DHT22;1703;51.964;7.642;2023-04-08T05:13:57;6.90;99.90
3380;DHT22;1703;51.964;7.642;2023-04-08T05:16:23;6.80;99.90
3380;DHT22;1703;51.964;7.642;2023-04-08T05:18:50;6.70;99.90
3380;DHT22;1703;51.964;7.642;2023-04-08T05:21:17;6.80;99.90
3380;DHT22;1703;51.964;7.642;2023-04-08T05:23:44;6.80;99.90
3380;DHT22;1703;51.964;7.642;2023-04-08T05:26:12;6.80;99.90
3380;DHT22;1703;51.964;7.642;2023-04-08T05:28:39;6.90;99.90
3380;DHT22;1703;51.964;7.642;2023-04-08T05:31:05;6.90;99.90
3380;DHT22;1703;51.964;7.642;2023-04-08T05:33:32;6.90;99.90
3380;DHT22;1703;51.964;7.642;2023-04-08T05:35:59;7.00;99.90
3380;DHT22;1703;51.964;7.642;2023-04-08T05:38:26;7.00;99.90
3380;DHT22;1703;51.964;7.642;2023-04-08T05:40:53;7.10;99.90
3380;DHT22;1703;51.964;7.642;2023-04-08T05:43:21;7.10;99.90
3380;DHT22;1703;51.964;7.642;2023-04-08T05:45:48;7.20;99.90
3380;DHT22;1703;51.964;7.642;2023-04-08T05:48:15;7.20;99.90
3380;DHT22;1703;51.964;7.642;2023-04-08T05:50:42;7.20;99.90
3380;DHT22;1703;51.964;7.642;2023-04-08T05:53:09;7.20;99.90
3380;DHT22;1703;51.964;7.642;2023-04-08T05:55:36;7.20;99.90
3380;DHT22;1703;51.964;7.642;2023-04-08T05:58:02;7.20;99.90
3380;DHT22;1703;51.964;7.642;2023-04-08T06:00:31;7.20;99.90
3380;DHT22;1703;51.964;7.642;2023-04-08T06:02:58;7.20;99.90
3380;DHT22;1703;51.964;7.642;2023-04-08T06:05:25;7.30;99.90
3380;DHT22;1703;51.964;7.642;2023-04-08T06:07:52;7.40;99.90
3380;DHT22;1703;51.964;7.642;2023-04-08T06:10:19;7.40;99.90
3380;DHT22;1703;51.964;7.642;2023-04-08T06:12:45;7.40;99.90
3380;DHT22;1703;51.964;7.642;2023-04-08T06:15:12;7.40;99.90
3380;DHT22;1703;51.964;7.642;2023-04-08T06:17:40;7.50;99.90
3380;DHT22;1703;51.964;7.642;2023-04-08T06:20:07;7.60;99.90
3380;DHT22;1703;51.964;7.642;2023-04-08T06:22:35;7.70;99.90
3380;DHT22;1703;51.964;7.642;2023-04-08T06:25:02;7.90;99.90
3380;DHT22;1703;51.964;7.642;2023-04-08T06:27:29;7.90;99.90
3380;DHT22;1703;51.964;7.642;2023-04-08T06:29:56;7.90;99.90
3380;DHT22;1703;51.964;7.642;2023-04-08T06:32:23;7.90;99.90
3380;DHT22;1703;51.964;7.642;2023-04-08T06:34:52;8.00;99.90
3380;DHT22;1703;51.964;7.642;2023-04-08T06:37:18;8.00;99.90
3380;DHT22;1703;51.964;7.642;2023-04-08T06:39:46;7.90;99.90
3380;DHT22;1703;51.964;7.642;2023-04-08T06:42:13;7.90;99.90
3380;DHT22;1703;51.964;7.642;2023-04-08T06:45:03;7.80;99.90
3380;DHT22;1703;51.964;7.642;2023-04-08T06:47:30;7.70;99.90
3380;DHT22;1703;51.964;7.642;2023-04-08T06:49:59;7.80;99.90
3380;DHT22;1703;51.964;7.642;2023-04-08T06:52:25;7.80;99.90
3380;DHT22;1703;51.964;7.642;2023-04-08T06:54:52;7.90;99.90
3380;DHT22;1703;51.964;7.642;2023-04-08T06:57:19;7.90;99.90
3380;DHT22;1703;51.964;7.642;2023-04-08T06:59:46;7.90;99.90
3380;DHT22;1703;51.964;7.642;2023-04-08T07:02:12;8.00;99.90
3380;DHT22;1703;51.964;7.642;2023-04-08T07:04:40;8.10;99.90
3380;DHT22;1703;51.964;7.642;2023-04-08T07:07:08;8.10;99.90
3380;DHT22;1703;51.964;7.642;2023-04-08T07:09:35;8.10;99.90
3380;DHT22;1703;51.964;7.642;2023-04-08T07:12:02;8.20;99.90
3380;DHT22;1703;51.964;7.642;2023-04-08T07:14:29;8.30;99.90
3380;DHT22;1703;51.964;7.642;2023-04-08T07:16:56;8.30;99.90
3380;DHT22;1703;51.964;7.642;2023-04-08T07:19:23;8.30;99.90
3380;DHT22;1703;51.964;7.642;2023-04-08T07:21:49;8.30;99.90
3380;DHT22;1703;51.964;7.642;2023-04-08T07:24:18;8.40;99.90
3380;DHT22;1703;51.964;7.642;2023-04-08T07:26:47;8.40;99.90
3380;DHT22;1703;51.964;7.642;2023-04-08T07:29:14;8.50;99.90
3380;DHT22;1703;51.964;7.642;2023-04-08T07:31:42;8.40;99.90
3380;DHT22;1703;51.964;7.642;2023-04-08T07:34:09;8.40;99.90
3380;DHT22;1703;51.964;7.642;2023-04-08T07:36:36;8.40;99.90
3380;DHT22;1703;51.964;7.642;2023-04-08T07:39:03;8.40;99.90
3380;DHT22;1703;51.964;7.642;2023-04-08T07:41:31;8.50;99.90
3380;DHT22;1703;51.964;7.642;2023-04-08T07:43:58;8.50;99.90
3380;DHT22;1703;51.964;7.642;2023-04-08T07:46:24;8.60;99.90
3380;DHT22;1703;51.964;7.642;2023-04-08T07:48:51;8.60;99.90
3380;DHT22;1703;51.964;7.642;2023-04-08T07:51:18;8.60;99.90
3380;DHT22;1703;51.964;7.642;2023-04-08T07:53:45;8.60;99.90
3380;DHT22;1703;51.964;7.642;2023-04-08T07:56:12;8.60;99.90
3380;DHT22;1703;51.964;7.642;2023-04-08T07:58:41;8.70;99.90
3380;DHT22;1703;51.964;7.642;2023-04-08T08:01:15;8.80;99.90
3380;DHT22;1703;51.964;7.642;2023-04-08T08:03:42;8.90;99.90
3380;DHT22;1703;51.964;7.642;2023-04-08T08:06:10;9.10;99.90
3380;DHT22;1703;51.964;7.642;2023-04-08T08:08:37;9.20;99.90
3380;DHT22;1703;51.964;7.642;2023-04-08T08:11:04;9.20;99.90
3380;DHT22;1703;51.964;7.642;2023-04-08T08:13:31;9.30;99.90
3380;DHT22;1703;51.964;7.642;2023-04-08T08:16:00;9.30;99.90
3380;DHT22;1703;51.964;7.642;2023-04-08T08:18:26;9.30;99.90
3380;DHT22;1703;51.964;7.642;2023-04-08T08:20:53;9.40;99.90
3380;DHT22;1703;51.964;7.642;2023-04-08T08:23:20;9.50;99.90
3380;DHT22;1703;51.964;7.642;2023-04-08T08:25:48;9.60;99.90
3380;DHT22;1703;51.964;7.642;2023-04-08T08:28:14;9.60;99.90
3380;DHT22;1703;51.964;7.642;2023-04-08T08:30:41;9.70;99.90
3380;DHT22;1703;51.964;7.642;2023-04-08T08:33:09;9.70;99.90
3380;DHT22;1703;51.964;7.642;2023-04-08T08:35:36;9.70;99.90
3380;DHT22;1703;51.964;7.642;2023-04-08T08:38:03;9.70;99.90
3380;DHT22;1703;51.964;7.642;2023-04-08T08:40:30;9.80;99.90
3380;DHT22;1703;51.964;7.642;2023-04-08T08:42:57;9.80;99.90
3380;DHT22;1703;51.964;7.642;2023-04-08T08:45:26;9.80;99.90
3380;DHT22;1703;51.964;7.642;2023-04-08T08:47:52;10.00;99.90
3380;DHT22;1703;51.964;7.642;2023-04-08T08:50:21;10.10;99.90
3380;DHT22;1703;51.964;7.642;2023-04-08T08:52:48;10.30;99.90
3380;DHT22;1703;51.964;7.642;2023-04-08T08:55:17;10.30;99.90
3380;DHT22;1703;51.964;7.642;2023-04-08T08:57:44;10.30;99.90
3380;DHT22;1703;51.964;7.642;2023-04-08T09:00:12;10.20;99.90
3380;DHT22;1703;51.964;7.642;2023-04-08T09:02:40;10.00;99.90
3380;DHT22;1703;51.964;7.642;2023-04-08T09:05:08;10.00;99.90
3380;DHT22;1703;51.964;7.642;2023-04-08T09:07:37;10.00;99.90
3380;DHT22;1703;51.964;7.642;2023-04-08T09:10:06;10.00;99.90
3380;DHT22;1703;51.964;7.642;2023-04-08T09:12:32;9.90;99.90
3380;DHT22;1703;51.964;7.642;2023-04-08T09:15:04;10.00;99.90
3380;DHT22;1703;51.964;7.642;2023-04-08T09:17:31;10.00;99.90
3380;DHT22;1703;51.964;7.642;2023-04-08T09:20:06;10.10;99.90
3380;DHT22;1703;51.964;7.642;2023-04-08T09:22:54;10.30;99.90
3380;DHT22;1703;51.964;7.642;2023-04-08T09:25:23;10.30;99.90
3380;DHT22;1703;51.964;7.642;2023-04-08T09:27:50;10.20;99.90
3380;DHT22;1703;51.964;7.642;2023-04-08T09:30:19;10.30;99.90
3380;DHT22;1703;51.964;7.642;2023-04-08T09:32:49;10.50;99.90
3380;DHT22;1703;51.964;7.642;2023-04-08T09:35:17;10.60;99.90
3380;DHT22;1703;51.964;7.642;2023-04-08T09:37:46;10.80;99.90
3380;DHT22;1703;51.964;7.642;2023-04-08T09:40:14;10.70;99.90
3380;DHT22;1703;51.964;7.642;2023-04-08T09:42:44;10.80;99.90
3380;DHT22;1703;51.964;7.642;2023-04-08T09:45:14;10.80;99.90
3380;DHT22;1703;51.964;7.642;2023-04-08T09:47:47;10.70;99.90
3380;DHT22;1703;51.964;7.642;2023-04-08T09:50:18;10.80;99.90
3380;DHT22;1703;51.964;7.642;2023-04-08T09:52:52;11.00;99.90
3380;DHT22;1703;51.964;7.642;2023-04-08T09:55:21;11.10;99.90
3380;DHT22;1703;51.964;7.642;2023-04-08T09:57:51;11.10;99.90
3380;DHT22;1703;51.964;7.642;2023-04-08T10:00:23;10.90;99.90
3380;DHT22;1703;51.964;7.642;2023-04-08T10:02:55;10.90;99.90
3380;DHT22;1703;51.964;7.642;2023-04-08T10:05:23;11.00;99.90
3380;DHT22;1703;51.964;7.642;2023-04-08T10:07:52;11.00;99.90
3380;DHT22;1703;51.964;7.642;2023-04-08T10:10:21;11.10;99.90
3380;DHT22;1703;51.964;7.642;2023-04-08T10:12:48;11.10;99.90
3380;DHT22;1703;51.964;7.642;2023-04-08T10:15:25;10.90;99.90
3380;DHT22;1703;51.964;7.642;2023-04-08T10:17:54;11.10;99.90
3380;DHT22;1703;51.964;7.642;2023-04-08T10:20:41;11.20;99.90
3380;DHT22;1703;51.964;7.642;2023-04-08T10:23:10;11.30;99.90
3380;DHT22;1703;51.964;7.642;2023-04-08T10:25:39;11.40;99.90
3380;DHT22;1703;51.964;7.642;2023-04-08T10:28:25;11.50;99.90
3380;DHT22;1703;51.964;7.642;2023-04-08T10:30:53;11.50;99.90
3380;DHT22;1703;51.964;7.642;2023-04-08T10:33:22;11.70;99.90
3380;DHT22;1703;51.964;7.642;2023-04-08T10:35:52;11.70;99.90
3380;DHT22;1703;51.964;7.642;2023-04-08T10:38:21;11.70;99.90
3380;DHT22;1703;51.964;7.642;2023-04-08T10:40:48;11.40;99.90
3380;DHT22;1703;51.964;7.642;2023-04-08T10:43:16;11.60;99.90
3380;DHT22;1703;51.964;7.642;2023-04-08T10:45:43;11.70;99.90
3380;DHT22;1703;51.964;7.642;2023-04-08T10:48:14;11.70;99.90
3380;DHT22;1703;51.964;7.642;2023-04-08T10:50:42;11.70;99.90
3380;DHT22;1703;51.964;7.642;2023-04-08T10:53:09;11.80;99.90
3380;DHT22;1703;51.964;7.642;2023-04-08T10:55:38;12.00;99.90
3380;DHT22;1703;51.964;7.642;2023-04-08T10:58:07;12.20;99.90
3380;DHT22;1703;51.964;7.642;2023-04-08T11:00:35;12.20;99.90
3380;DHT22;1703;51.964;7.642;2023-04-08T11:03:03;12.20;99.90
3380;DHT22;1703;51.964;7.642;2023-04-08T11:05:31;12.10;99.90
3380;DHT22;1703;51.964;7.642;2023-04-08T11:07:58;12.00;99.90
3380;DHT22;1703;51.964;7.642;2023-04-08T11:10:25;11.90;99.90
3380;DHT22;1703;51.964;7.642;2023-04-08T11:12:54;12.00;99.90
3380;DHT22;1703;51.964;7.642;2023-04-08T11:15:23;12.10;99.90
3380;DHT22;1703;51.964;7.642;2023-04-08T11:17:50;12.20;99.90
3380;DHT22;1703;51.964;7.642;2023-04-08T11:20:18;12.20;99.90
3380;DHT22;1703;51.964;7.642;2023-04-08T11:22:46;12.30;99.90
3380;DHT22;1703;51.964;7.642;2023-04-08T11:25:13;12.30;99.90
3380;DHT22;1703;51.964;7.642;2023-04-08T11:27:40;12.40;99.90
3380;DHT22;1703;51.964;7.642;2023-04-08T11:30:09;12.30;99.90
3380;DHT22;1703;51.964;7.642;2023-04-08T11:32:37;12.40;99.90
3380;DHT22;1703;51.964;7.642;2023-04-08T11:35:04;12.50;99.90
3380;DHT22;1703;51.964;7.642;2023-04-08T11:37:38;12.60;99.90
3380;DHT22;1703;51.964;7.642;2023-04-08T11:40:07;12.80;99.90
3380;DHT22;1703;51.964;7.642;2023-04-08T11:42:34;12.80;99.90
3380;DHT22;1703;51.964;7.642;2023-04-08T11:45:01;12.70;99.90
3380;DHT22;1703;51.964;7.642;2023-04-08T11:47:37;12.80;99.90
3380;DHT22;1703;51.964;7.642;2023-04-08T11:50:05;12.90;99.90
3380;DHT22;1703;51.964;7.642;2023-04-08T11:52:45;13.10;99.90
3380;DHT22;1703;51.964;7.642;2023-04-08T11:55:21;13.10;99.90
3380;DHT22;1703;51.964;7.642;2023-04-08T11:57:49;13.10;99.90
3380;DHT22;1703;51.964;7.642;2023-04-08T12:00:16;13.10;99.90
3380;DHT22;1703;51.964;7.642;2023-04-08T12:02:45;13.00;99.90
3380;DHT22;1703;51.964;7.642;2023-04-08T12:05:13;12.90;99.90
3380;DHT22;1703;51.964;7.642;2023-04-08T12:07:40;12.90;99.90
3380;DHT22;1703;51.964;7.642;2023-04-08T12:10:08;12.90;99.90
3380;DHT22;1703;51.964;7.642;2023-04-08T12:12:35;12.80;99.90
3380;DHT22;1703;51.964;7.642;2023-04-08T12:15:03;12.90;99.90
3380;DHT22;1703;51.964;7.642;2023-04-08T12:17:30;12.90;99.90
3380;DHT22;1703;51.964;7.642;2023-04-08T12:19:58;13.00;99.90
3380;DHT22;1703;51.964;7.642;2023-04-08T12:22:25;13.10;99.90
3380;DHT22;1703;51.964;7.642;2023-04-08T12:24:52;13.10;99.90
3380;DHT22;1703;51.964;7.642;2023-04-08T12:27:18;13.10;99.90
3380;DHT22;1703;51.964;7.642;2023-04-08T12:29:45;12.80;99.90
3380;DHT22;1703;51.964;7.642;2023-04-08T12:32:14;12.90;99.90
3380;DHT22;1703;51.964;7.642;2023-04-08T12:34:41;13.10;99.90
3380;DHT22;1703;51.964;7.642;2023-04-08T12:37:09;13.10;99.90
3380;DHT22;1703;51.964;7.642;2023-04-08T12:39:36;12.90;99.90
3380;DHT22;1703;51.964;7.642;2023-04-08T12:42:03;12.90;99.90
3380;DHT22;1703;51.964;7.642;2023-04-08T12:44:30;12.80;99.90
3380;DHT22;1703;51.964;7.642;2023-04-08T12:46:57;13.00;99.90
3380;DHT22;1703;51.964;7.642;2023-04-08T12:49:23;13.00;99.90
3380;DHT22;1703;51.964;7.642;2023-04-08T12:51:50;13.10;99.90
3380;DHT22;1703;51.964;7.642;2023-04-08T12:54:19;13.10;99.90
3380;DHT22;1703;51.964;7.642;2023-04-08T12:56:46;13.00;99.90
3380;DHT22;1703;51.964;7.642;2023-04-08T12:59:14;13.00;99.90
3380;DHT22;1703;51.964;7.642;2023-04-08T13:01:41;13.10;99.90
3380;DHT22;1703;51.964;7.642;2023-04-08T13:04:08;13.10;99.90
3380;DHT22;1703;51.964;7.642;2023-04-08T13:06:35;13.10;99.90
3380;DHT22;1703;51.964;7.642;2023-04-08T13:09:01;13.00;99.90
3380;DHT22;1703;51.964;7.642;2023-04-08T13:11:30;13.00;99.90
3380;DHT22;1703;51.964;7.642;2023-04-08T13:13:58;13.10;99.90
3380;DHT22;1703;51.964;7.642;2023-04-08T13:16:25;13.00;99.90
3380;DHT22;1703;51.964;7.642;2023-04-08T13:18:52;13.10;99.90
3380;DHT22;1703;51.964;7.642;2023-04-08T13:21:20;13.10;99.90
3380;DHT22;1703;51.964;7.642;2023-04-08T13:23:46;13.10;99.90
3380;DHT22;1703;51.964;7.642;2023-04-08T13:26:13;13.00;99.90
3380;DHT22;1703;51.964;7.642;2023-04-08T13:28:42;12.70;99.90
3380;DHT22;1703;51.964;7.642;2023-04-08T13:31:09;12.80;99.90
3380;DHT22;1703;51.964;7.642;2023-04-08T13:33:36;12.80;99.90
3380;DHT22;1703;51.964;7.642;2023-04-08T13:36:03;12.70;99.90
3380;DHT22;1703;51.964;7.642;2023-04-08T13:38:30;12.70;99.90
3380;DHT22;1703;51.964;7.642;2023-04-08T13:40:57;12.70;99.90
3380;DHT22;1703;51.964;7.642;2023-04-08T13:43:25;12.80;99.90
3380;DHT22;1703;51.964;7.642;2023-04-08T13:45:53;12.80;99.90
3380;DHT22;1703;51.964;7.642;2023-04-08T13:48:20;12.80;99.90
3380;DHT22;1703;51.964;7.642;2023-04-08T13:50:49;12.80;99.90
3380;DHT22;1703;51.964;7.642;2023-04-08T13:53:16;13.00;99.90
3380;DHT22;1703;51.964;7.642;2023-04-08T13:55:43;12.90;99.90
3380;DHT22;1703;51.964;7.642;2023-04-08T13:58:10;13.00;99.90
3380;DHT22;1703;51.964;7.642;2023-04-08T14:00:37;13.10;99.90
3380;DHT22;1703;51.964;7.642;2023-04-08T14:03:05;13.00;99.90
3380;DHT22;1703;51.964;7.642;2023-04-08T14:05:32;13.00;99.90
3380;DHT22;1703;51.964;7.642;2023-04-08T14:07:59;12.90;99.90
3380;DHT22;1703;51.964;7.642;2023-04-08T14:10:35;12.70;99.90
3380;DHT22;1703;51.964;7.642;2023-04-08T14:13:02;12.80;99.90
3380;DHT22;1703;51.964;7.642;2023-04-08T14:15:29;12.80;99.90
3380;DHT22;1703;51.964;7.642;2023-04-08T14:17:56;12.90;99.90
3380;DHT22;1703;51.964;7.642;2023-04-08T14:20:24;12.70;99.90
3380;DHT22;1703;51.964;7.642;2023-04-08T14:22:51;12.70;99.90
3380;DHT22;1703;51.964;7.642;2023-04-08T14:25:18;12.80;99.90
3380;DHT22;1703;51.964;7.642;2023-04-08T14:27:45;12.80;99.90
3380;DHT22;1703;51.964;7.642;2023-04-08T14:30:12;12.90;99.90
3380;DHT22;1703;51.964;7.642;2023-04-08T14:32:39;12.80;99.90
3380;DHT22;1703;51.964;7.642;2023-04-08T14:35:06;12.70;99.90
3380;DHT22;1703;51.964;7.642;2023-04-08T14:37:34;12.70;99.90
3380;DHT22;1703;51.964;7.642;2023-04-08T14:40:03;12.60;99.90
3380;DHT22;1703;51.964;7.642;2023-04-08T14:42:30;12.60;99.90
3380;DHT22;1703;51.964;7.642;2023-04-08T14:44:57;12.70;99.90
3380;DHT22;1703;51.964;7.642;2023-04-08T14:47:24;12.70;99.90
3380;DHT22;1703;51.964;7.642;2023-04-08T14:49:51;12.70;99.90
3380;DHT22;1703;51.964;7.642;2023-04-08T14:52:17;12.60;99.90
3380;DHT22;1703;51.964;7.642;2023-04-08T14:54:45;12.80;99.90
3380;DHT22;1703;51.964;7.642;2023-04-08T14:57:12;12.70;99.90
3380;DHT22;1703;51.964;7.642;2023-04-08T14:59:41;12.80;99.90
3380;DHT22;1703;51.964;7.642;2023-04-08T15:02:08;12.90;99.90
3380;DHT22;1703;51.964;7.642;2023-04-08T15:04:35;13.00;99.90
3380;DHT22;1703;51.964;7.642;2023-04-08T15:07:02;13.00;99.90
3380;DHT22;1703;51.964;7.642;2023-04-08T15:09:29;13.00;99.90
3380;DHT22;1703;51.964;7.642;2023-04-08T15:11:57;13.00;99.90
3380;DHT22;1703;51.964;7.642;2023-04-08T15:14:24;12.80;99.90
3380;DHT22;1703;51.964;7.642;2023-04-08T15:16:51;12.80;99.90
3380;DHT22;1703;51.964;7.642;2023-04-08T15:19:18;12.80;99.90
3380;DHT22;1703;51.964;7.642;2023-04-08T15:21:44;12.70;99.90
3380;DHT22;1703;51.964;7.642;2023-04-08T15:24:12;12.70;99.90
3380;DHT22;1703;51.964;7.642;2023-04-08T15:26:38;12.70;99.90
3380;DHT22;1703;51.964;7.642;2023-04-08T15:29:07;12.80;99.90
3380;DHT22;1703;51.964;7.642;2023-04-08T15:31:33;12.80;99.90
3380;DHT22;1703;51.964;7.642;2023-04-08T15:34:00;12.70;99.90
3380;DHT22;1703;51.964;7.642;2023-04-08T15:36:28;12.60;99.90
3380;DHT22;1703;51.964;7.642;2023-04-08T15:38:55;12.60;99.90
3380;DHT22;1703;51.964;7.642;2023-04-08T15:41:22;12.60;99.90
3380;DHT22;1703;51.964;7.642;2023-04-08T15:43:49;12.60;99.90
3380;DHT22;1703;51.964;7.642;2023-04-08T15:46:18;12.60;99.90
3380;DHT22;1703;51.964;7.642;2023-04-08T15:48:45;12.60;99.90
3380;DHT22;1703;51.964;7.642;2023-04-08T15:51:12;12.50;99.90
3380;DHT22;1703;51.964;7.642;2023-04-08T15:53:39;12.50;99.90
3380;DHT22;1703;51.964;7.642;2023-04-08T15:56:08;12.60;99.90
3380;DHT22;1703;51.964;7.642;2023-04-08T15:58:37;12.70;99.90
3380;DHT22;1703;51.964;7.642;2023-04-08T16:01:04;12.80;99.90
3380;DHT22;1703;51.964;7.642;2023-04-08T16:03:32;12.80;99.90
3380;DHT22;1703;51.964;7.642;2023-04-08T16:05:59;12.80;99.90
3380;DHT22;1703;51.964;7.642;2023-04-08T16:08:26;12.80;99.90
3380;DHT22;1703;51.964;7.642;2023-04-08T16:10:58;12.80;99.90
3380;DHT22;1703;51.964;7.642;2023-04-08T16:13:26;12.80;99.90